Weather at Camilo Daza International Airport

Public forecast

Using degrees Celsius for public forecast. Weather courtesy of forecast.io.

Current aviation weather report (METAR) for Camilo Daza International Airport

Retrieved 2022/07/03 10:30 UTC (12 minutes ago):

SKCC 031030Z 16010KT 9999 -RA BKN017 25/21 Q1013 RMK A2994

Aviation forecast (TAF) for Camilo Daza International Airport

Retrieved 2022/07/03 06:45 UTC (4 hours ago):

TAF SKCC 030430Z 0306/0406 VRB02KT 9999 SCT020 BECMG 0315/0317 35010KT TEMPO 0320/0323 TS FEW015CB BECMG 0402/0404 VRB02KT TX33/0318Z TN22/0310Z